Flight Track Log - Related Links

Times and Time Zones

All times are in EDT time to prevent confusion due to time zone crossing. See the SWA3497 flight status page for this flight to view local times or setup timezone preferences in your user account.


Time Position Orientation Groundspeed Altitude Reporting Facility
EDT Latitude Longitude Course Direction KTS MPH feet Rate Location/Type
Tue 02:03:58 PM 38.1367 -85.7308 163° South 163 188 2,600  Level FAA TRACON SMA TRACON (SMA)
Tue 02:04:18 PM 38.1208 -85.7242 162° South 187 215 3,400 2,400 Climbing FAA TRACON SMA TRACON (SMA)
Tue 02:04:38 PM 38.1044 -85.7167 160° South 203 234 4,200 2,195 Climbing FAA TRACON SMA TRACON (SMA)
Tue 02:04:59 PM 38.0803 -85.7053 160° South 234 269 4,900 2,700 Climbing FAA TRACON SMA TRACON (SMA)
Tue 02:05:18 PM 38.0600 -85.6958 160° South 252 290 6,000 3,231 Climbing FAA TRACON SMA TRACON (SMA)
Tue 02:05:38 PM 38.0433 -85.6769 138° Southeast 268 308 7,000 3,300 Climbing FAA TRACON SMA TRACON (SMA)
Tue 02:05:58 PM 38.0367 -85.6394 103° East 284 327 8,200 3,150 Climbing FAA TRACON SMA TRACON (SMA)
Tue 02:06:18 PM 38.0344 -85.6067 95° East 298 343 9,100 2,488 Climbing FAA TRACON SMA TRACON (SMA)
Tue 02:06:39 PM 38.0344 -85.5639 90° East 315 362 9,900 1,350 Climbing FAA TRACON SMA TRACON (SMA)
Tue 02:06:58 PM 38.0358 -85.5292 87° East 318 366 10,000 308 Climbing FAA TRACON SMA TRACON (SMA)
Tue 02:07:18 PM 38.0372 -85.4939 87° East 324 373 10,100 1,463 Climbing FAA TRACON SMA TRACON (SMA)
Tue 02:07:39 PM 38.0414 -85.4481 83° East 335 386 11,000 3,150 Climbing FAA TRACON SMA TRACON (SMA)
Tue 02:07:58 PM 38.0453 -85.4108 82° East 344 396 12,200 3,385 Climbing FAA TRACON SMA TRACON (SMA)
Tue 02:08:18 PM 38.0492 -85.3728 83° East 351 404 13,200 3,900 Climbing FAA TRACON SMA TRACON (SMA)
Tue 02:08:38 PM 38.0542 -85.3233 83° East 362 417 14,800 4,350 Climbing FAA TRACON SMA TRACON (SMA)
Tue 02:08:58 PM 38.0581 -85.2842 83° East 366 421 16,100 3,450 Climbing FAA TRACON SMA TRACON (SMA)
Tue 02:09:18 PM 38.0617 -85.2447 83° East 366 421 17,100 3,000 Climbing FAA TRACON SMA TRACON (SMA)
Tue 02:09:38 PM 38.0669 -85.1936 83° East 375 432 18,100 2,780 Climbing FAA TRACON SMA TRACON (SMA)
Tue 02:09:59 PM 38.0717 -85.1511 82° East 388 447 19,000 2,550 Climbing FAA TRACON SMA TRACON (SMA)
Tue 02:10:18 PM 38.0756 -85.1078 83° East 399 459 19,800 2,923 Climbing FAA TRACON SMA TRACON (SMA)
Tue 02:10:38 PM 38.0811 -85.0522 83° East 410 472 20,900 3,000 Climbing FAA TRACON SMA TRACON (SMA)
Tue 02:10:58 PM 38.0858 -85.0069 82° East 418 481 21,800 2,700 Climbing FAA TRACON SMA TRACON (SMA)
Tue 02:11:18 PM 38.0897 -84.9611 84° East 424 488 22,700 2,927 Climbing FAA TRACON SMA TRACON (SMA)
Tue 02:11:39 PM 38.0947 -84.9028 84° East 428 493 23,800 2,850 Climbing FAA TRACON SMA TRACON (SMA)
Tue 02:11:58 PM 38.1003 -84.8558 81° East 435 501 24,600 2,462 Climbing FAA TRACON SMA TRACON (SMA)
Tue 02:12:18 PM 38.1047 -84.8081 83° East 439 505 25,400 2,634 Climbing FAA TRACON SMA TRACON (SMA)
Tue 02:12:39 PM 38.1114 -84.7481 82° East 444 511 26,400 2,400 Climbing FAA TRACON SMA TRACON (SMA)
Tue 02:12:58 PM 38.1164 -84.6997 82° East 449 517 27,000 1,846 Climbing FAA TRACON SMA TRACON (SMA)
Tue 02:13:18 PM 38.1250 -84.6514 77° East 453 521 27,600 2,100 Climbing FAA TRACON SMA TRACON (SMA)
Tue 02:13:38 PM 38.1381 -84.5906 75° East 462 532 28,400 2,250 Climbing FAA TRACON SMA TRACON (SMA)
Tue 02:13:58 PM 38.1489 -84.5408 75° East 468 539 29,100 2,100 Climbing FAA TRACON SMA TRACON (SMA)
Tue 02:14:18 PM 38.1594 -84.4911 75° East 471 542 29,800 1,500 Climbing FAA TRACON SMA TRACON (SMA)
Tue 02:14:38 PM 38.1633 -84.4667 79° East 470 541 30,100 1,886 Climbing FAA TRACON SMA TRACON (SMA)
Tue 02:15:28 PM 38.1878 -84.3186 78° East 479 551 32,000 2,143 Climbing Indianapolis Center
Tue 02:16:30 PM 38.2000 -84.1464 85° East 488 562 34,100 1,463 Climbing Indianapolis Center
Tue 02:17:31 PM 38.2139 -83.9406 85° East 496 571 35,000 439 Climbing Indianapolis Center
Tue 02:18:33 PM 38.2278 -83.7536 85° East 520 598 35,000 677 Level Indianapolis Center
Tue 02:19:35 PM 38.2408 -83.5678 85° East 527 606 36,400 968 Climbing Indianapolis Center
Tue 02:20:37 PM 38.2517 -83.3942 85° East 504 580 37,000 293 Climbing Indianapolis Center
Tue 02:21:38 PM 38.2631 -83.2239 85° East 488 562 37,000  Level Indianapolis Center
Tue 02:22:41 PM 38.2736 -83.0519 85° East 484 557 37,000  Level Indianapolis Center
Tue 02:23:42 PM 38.2844 -82.8803 85° East 485 558 37,000  Level Indianapolis Center
Tue 02:24:44 PM 38.2969 -82.6817 85° East 483 556 37,000  Level Indianapolis Center
Tue 02:25:46 PM 38.3078 -82.5111 85° East 482 555 37,000  Level Indianapolis Center
Tue 02:26:48 PM 38.3161 -82.3603 86° East 480 552 37,000  Level Indianapolis Center
Tue 02:27:50 PM 38.3283 -82.1578 86° East 481 554 37,000  Level Indianapolis Center
Tue 02:28:52 PM 38.3386 -81.9917 85° East 475 547 37,000  Level Indianapolis Center
Tue 02:29:54 PM 38.3478 -81.8225 86° East 481 554 37,000  Level Indianapolis Center
Tue 02:30:55 PM 38.3475 -81.6528 90° East 486 559 37,000  Level Indianapolis Center
Tue 02:31:57 PM 38.3414 -81.4822 93° East 488 562 37,000  Level Indianapolis Center
Tue 02:32:59 PM 38.3356 -81.3125 92° East 487 560 37,000  Level Indianapolis Center
Tue 02:34:00 PM 38.3281 -81.1092 93° East 485 558 37,000  Level Indianapolis Center
Tue 02:35:09 PM 38.3200 -80.9167 93° East 479 551 37,000  Level Washington Center
Tue 02:36:09 PM 38.3147 -80.7497 92° East 479 551 37,000 -99 Level Washington Center
Tue 02:37:10 PM 38.3097 -80.5747 92° East 479 551 36,800 -1,000 Descending Washington Center
Tue 02:38:09 PM 38.3019 -80.4047 93° East 484 557 35,000 -908 Descending Washington Center
Tue 02:39:09 PM 38.2956 -80.2508 93° East 484 557 35,000  Level Washington Center
Tue 02:40:09 PM 38.2875 -80.0783 93° East 484 557 35,000 -198 Level Washington Center
Tue 02:41:10 PM 38.2811 -79.9114 93° East 479 551 34,600 -1,600 Descending Washington Center
Tue 02:42:09 PM 38.2744 -79.7442 93° East 479 551 31,800 -2,700 Descending Washington Center
Tue 02:43:10 PM 38.2683 -79.5589 92° East 479 551 29,200 -2,350 Descending Washington Center
Tue 02:44:09 PM 38.2608 -79.3997 93° East 471 542 27,100 -1,109 Descending Washington Center
Tue 02:45:09 PM 38.2903 -79.2636 75° East 414 476 27,000 -50 Descending Washington Center
Tue 02:46:09 PM 38.3233 -79.1303 72° East 402 463 27,000  Level Washington Center
Tue 02:47:09 PM 38.3583 -78.9994 71° East 390 449 27,000  Level Washington Center
Tue 02:48:09 PM 38.3889 -78.8844 71° East 385 443 27,000  Level Washington Center
Tue 02:49:09 PM 38.4194 -78.7533 73° East 385 443 27,000  Level Washington Center
Tue 02:50:10 PM 38.4519 -78.6194 73° East 385 443 27,000  Level Washington Center
Tue 02:51:10 PM 38.4867 -78.4881 71° East 385 443 27,000 -101 Level Washington Center
Tue 02:52:09 PM 38.5189 -78.3594 72° East 380 437 26,800 -1,109 Descending Washington Center
Tue 02:53:09 PM 38.5486 -78.2331 73° East 375 432 24,800 -1,983 Descending Washington Center
Tue 02:54:10 PM 38.5806 -78.1119 71° East 370 426 22,800 -1,950 Descending Washington Center
Tue 02:55:09 PM 38.6100 -77.9908 73° East 360 414 20,900 -1,866 Descending Washington Center
Tue 02:56:09 PM 38.6375 -77.8719 73° East 360 414 19,100 -950 Descending Washington Center
Tue 02:57:09 PM 38.6481 -77.7475 84° East 354 407 19,000 -50 Descending Washington Center
Tue 02:58:09 PM 38.6567 -77.6094 85° East 354 407 19,000 -404 Level Washington Center
Tue 02:58:38 PM 38.6667 -77.5500 78° East 352 405 18,400 -1,551 Descending Potomac TRACON
Tue 02:59:38 PM 38.6667 -77.4167 90° East 344 396 16,700 -1,200 Descending Potomac TRACON
Tue 03:00:38 PM 38.6833 -77.3000 80° East 336 387 16,000 -1,050 Descending Potomac TRACON
Tue 03:01:38 PM 38.6833 -77.1833 90° East 324 373 14,600 -1,650 Descending Potomac TRACON
Tue 03:02:38 PM 38.6833 -77.0667 90° East 322 371 12,700 -1,510 Descending Potomac TRACON
Tue 03:04:09 PM 38.6933 -76.9136 85° East 316 364 10,800 -1,250 Descending Washington Center
Tue 03:04:38 PM 38.7000 -76.8500 82° East 308 354 10,200 -1,133 Descending Potomac TRACON
Tue 03:05:39 PM 38.7000 -76.7500 90° East 277 319 9,100 -893 Descending Potomac TRACON
Tue 03:06:39 PM 38.7333 -76.6667 63° Northeast 268 308 8,400 -1,033 Descending Potomac TRACON
Tue 03:08:39 PM 38.8333 -76.5333 46° Northeast 263 303 6,000 -1,100 Descending Potomac TRACON
Tue 03:09:39 PM 38.8833 -76.5500 345° North 235 270 5,100 -947 Descending Potomac TRACON
Tue 03:10:33 PM 38.9500 -76.5500 360° North 221 254 4,200 -1,050 Descending Potomac TRACON
Tue 03:11:39 PM 39.0167 -76.5667 349° North 201 231 3,000 -857 Descending Potomac TRACON
Tue 03:12:39 PM 39.0667 -76.5667 360° North 170 196 2,400 -550 Descending Potomac TRACON
Tue 03:13:39 PM 39.1000 -76.6000 322° Northwest 150 173 1,900 -650 Descending Potomac TRACON
Tue 03:14:39 PM 39.1333 -76.6333 322° Northwest 135 155 1,100 -744 Descending Potomac TRACON
Tue 03:15:40 PM 39.1500 -76.6500 322° Northwest 125 144 400 -689 Descending Potomac TRACON

Login

Don't have an account? Register now (free) for customized features, flight alerts, and more!